createdAt,value
2023-05-05T00:01:53.563Z,98146.38
2023-05-05T00:04:22.818Z,98148.03
2023-05-05T00:06:50.949Z,98153.25
2023-05-05T00:09:18.279Z,98150.03
2023-05-05T00:11:45.338Z,98155.41
2023-05-05T00:14:12.494Z,98153.00
2023-05-05T00:16:39.549Z,98150.53
2023-05-05T00:19:06.822Z,98151.00
2023-05-05T00:21:33.772Z,98159.91
2023-05-05T00:24:00.857Z,98158.84
2023-05-05T00:26:27.817Z,98150.41
2023-05-05T00:28:55.477Z,98149.69
2023-05-05T00:31:22.849Z,98140.06
2023-05-05T00:33:49.821Z,98143.16
2023-05-05T00:36:16.870Z,98133.53
2023-05-05T00:38:43.924Z,98130.81
2023-05-05T00:41:11.268Z,98125.84
2023-05-05T00:43:38.679Z,98127.72
2023-05-05T00:46:26.286Z,98138.63
2023-05-05T00:48:54.779Z,98132.84
2023-05-05T00:51:23.109Z,98139.72
2023-05-05T00:53:50.499Z,98139.25
2023-05-05T00:56:19.625Z,98136.28
2023-05-05T00:58:47.153Z,98138.75
2023-05-05T01:01:15.445Z,98139.72
2023-05-05T01:03:42.587Z,98139.09
2023-05-05T01:06:10.468Z,98141.22
2023-05-05T01:09:01.863Z,98145.13
2023-05-05T01:11:40.894Z,98142.50
2023-05-05T01:14:13.720Z,98145.59
2023-05-05T01:16:56.146Z,98144.13
2023-05-05T01:19:47.978Z,98136.88
2023-05-05T01:22:20.187Z,98134.72
2023-05-05T01:25:09.012Z,98129.59
2023-05-05T01:27:48.410Z,98129.56
2023-05-05T01:30:47.544Z,98129.25
2023-05-05T01:33:19.152Z,98118.66
2023-05-05T01:35:55.454Z,98114.78
2023-05-05T01:38:38.194Z,98121.59
2023-05-05T01:41:18.320Z,98127.97
2023-05-05T01:43:50.014Z,98125.09
2023-05-05T01:46:19.415Z,98132.97
2023-05-05T01:48:49.179Z,98126.31
2023-05-05T01:51:19.323Z,98125.94
2023-05-05T01:53:47.396Z,98123.53
2023-05-05T01:56:16.049Z,98123.91
2023-05-05T01:58:45.373Z,98120.59
2023-05-05T02:01:14.324Z,98121.22
2023-05-05T02:03:42.429Z,98124.91
2023-05-05T02:06:12.371Z,98116.38
2023-05-05T02:08:41.227Z,98121.34
2023-05-05T02:11:10.689Z,98120.81
2023-05-05T02:13:42.743Z,98112.72
2023-05-05T02:16:16.948Z,98105.75
2023-05-05T02:18:47.141Z,98107.81
2023-05-05T02:21:18.182Z,98108.88
2023-05-05T02:23:51.714Z,98111.25
2023-05-05T02:26:22.041Z,98113.72
2023-05-05T02:29:03.470Z,98112.78
2023-05-05T02:31:32.773Z,98109.72
2023-05-05T02:34:03.325Z,98111.72
2023-05-05T02:36:39.528Z,98109.34
2023-05-05T02:39:18.857Z,98105.19
2023-05-05T02:41:48.794Z,98113.06
2023-05-05T02:44:26.264Z,98114.13
2023-05-05T02:46:55.087Z,98104.38
2023-05-05T02:49:23.527Z,98113.69
2023-05-05T02:51:54.131Z,98119.00
2023-05-05T02:54:27.386Z,98112.59
2023-05-05T02:56:57.934Z,98115.00
2023-05-05T02:59:40.577Z,98112.75
2023-05-05T03:02:19.084Z,98121.34
2023-05-05T03:04:50.565Z,98123.66
2023-05-05T03:08:02.037Z,98114.78
2023-05-05T03:10:35.068Z,98123.13
2023-05-05T03:13:05.366Z,98131.31
2023-05-05T03:15:43.488Z,98135.00
2023-05-05T03:18:12.367Z,98133.84
2023-05-05T03:20:43.609Z,98129.47
2023-05-05T03:23:18.389Z,98136.84
2023-05-05T03:25:48.132Z,98136.25
2023-05-05T03:28:41.329Z,98131.63
2023-05-05T03:31:18.165Z,98134.72
2023-05-05T03:33:49.458Z,98130.91
2023-05-05T03:36:16.674Z,98131.41
2023-05-05T03:38:44.027Z,98133.88
2023-05-05T03:41:11.384Z,98132.84
2023-05-05T03:43:39.427Z,98143.28
2023-05-05T03:46:07.241Z,98129.13
2023-05-05T03:48:34.431Z,98132.44
2023-05-05T03:51:01.551Z,98131.25
2023-05-05T03:53:31.092Z,98124.84
2023-05-05T03:56:00.406Z,98121.53
2023-05-05T03:58:27.756Z,98136.50
2023-05-05T04:00:54.848Z,98128.06
2023-05-05T04:03:22.151Z,98133.72
2023-05-05T04:05:49.702Z,98142.78
2023-05-05T04:08:17.139Z,98142.16
2023-05-05T04:10:44.267Z,98136.78
2023-05-05T04:13:12.020Z,98145.09
2023-05-05T04:15:45.540Z,98152.72
2023-05-05T04:18:13.540Z,98151.25
2023-05-05T04:20:41.011Z,98148.41
2023-05-05T04:23:08.686Z,98141.72
2023-05-05T04:25:36.105Z,98146.59
2023-05-05T04:28:04.542Z,98139.00
2023-05-05T04:30:32.651Z,98134.09
2023-05-05T04:32:59.742Z,98137.13
2023-05-05T04:35:26.922Z,98130.78
2023-05-05T04:37:54.927Z,98141.72
2023-05-05T04:40:22.666Z,98132.19
2023-05-05T04:42:49.840Z,98130.22
2023-05-05T04:45:17.130Z,98129.59
2023-05-05T04:47:44.486Z,98134.16
2023-05-05T04:50:12.265Z,98129.69
2023-05-05T04:52:39.719Z,98129.03
2023-05-05T04:55:08.729Z,98134.28
2023-05-05T04:57:35.858Z,98126.31
2023-05-05T05:00:05.454Z,98133.38
2023-05-05T05:02:32.854Z,98134.97
2023-05-05T05:05:00.183Z,98134.72
2023-05-05T05:07:27.318Z,98135.56
2023-05-05T05:09:54.367Z,98136.72
2023-05-05T05:12:21.608Z,98141.72
2023-05-05T05:14:48.637Z,98150.84
2023-05-05T05:17:15.833Z,98158.63
2023-05-05T05:19:42.875Z,98151.31
2023-05-05T05:22:10.804Z,98154.75
2023-05-05T05:24:40.461Z,98160.31
2023-05-05T05:27:10.094Z,98159.31
2023-05-05T05:29:39.964Z,98163.59
2023-05-05T05:32:07.209Z,98163.88
2023-05-05T05:34:35.141Z,98157.66
2023-05-05T05:37:03.673Z,98165.69
2023-05-05T05:39:30.889Z,98162.88
2023-05-05T05:41:58.053Z,98165.91
2023-05-05T05:44:25.517Z,98166.06
2023-05-05T05:46:52.773Z,98172.69
2023-05-05T05:49:19.822Z,98181.53
2023-05-05T05:51:47.397Z,98188.94
2023-05-05T05:54:14.507Z,98190.09
2023-05-05T05:56:42.932Z,98186.50
2023-05-05T05:59:10.375Z,98192.47
2023-05-05T06:01:40.507Z,98189.44
2023-05-05T06:04:08.070Z,98195.78
2023-05-05T06:06:35.409Z,98195.25
2023-05-05T06:09:02.631Z,98193.97
2023-05-05T06:11:31.791Z,98198.03
2023-05-05T06:13:59.663Z,98199.38
2023-05-05T06:16:26.916Z,98196.06
2023-05-05T06:18:54.079Z,98192.72
2023-05-05T06:21:21.133Z,98192.31
2023-05-05T06:23:48.131Z,98193.69
2023-05-05T06:26:16.086Z,98195.97
2023-05-05T06:28:43.194Z,98199.09
2023-05-05T06:31:10.242Z,98198.69
2023-05-05T06:33:37.323Z,98201.00
2023-05-05T06:36:04.607Z,98201.91
2023-05-05T06:38:31.571Z,98208.16
2023-05-05T06:40:58.763Z,98210.19
2023-05-05T06:43:25.988Z,98219.97
2023-05-05T06:45:58.007Z,98219.00
2023-05-05T06:48:25.046Z,98230.28
2023-05-05T06:50:52.135Z,98230.34
2023-05-05T06:53:19.146Z,98226.13
2023-05-05T06:55:47.802Z,98228.44
2023-05-05T06:58:14.845Z,98224.41
2023-05-05T07:00:42.412Z,98223.94
2023-05-05T07:03:09.688Z,98223.41
2023-05-05T07:05:36.943Z,98233.47
2023-05-05T07:08:04.268Z,98232.56
2023-05-05T07:10:34.075Z,98230.28
2023-05-05T07:13:01.186Z,98235.00
2023-05-05T07:15:29.640Z,98234.22
2023-05-05T07:17:57.860Z,98236.00
2023-05-05T07:20:25.380Z,98242.66
2023-05-05T07:22:52.440Z,98245.22
2023-05-05T07:25:19.647Z,98246.53
2023-05-05T07:27:46.705Z,98246.47
2023-05-05T07:30:17.607Z,98245.28
2023-05-05T07:32:46.321Z,98248.69
2023-05-05T07:35:13.811Z,98242.94
2023-05-05T07:37:40.874Z,98254.00
2023-05-05T07:40:08.931Z,98252.28
2023-05-05T07:42:36.370Z,98255.50
2023-05-05T07:45:04.760Z,98250.72
2023-05-05T07:47:32.110Z,98262.78
2023-05-05T07:49:59.194Z,98265.97
2023-05-05T07:52:43.549Z,98263.97
2023-05-05T07:55:12.049Z,98264.97
2023-05-05T07:57:39.414Z,98261.47
2023-05-05T08:00:07.439Z,98269.41
2023-05-05T08:02:41.497Z,98263.03
2023-05-05T08:05:09.425Z,98264.13
2023-05-05T08:07:41.179Z,98269.16
2023-05-05T08:10:12.909Z,98262.72
2023-05-05T08:12:40.726Z,98258.22
2023-05-05T08:15:08.502Z,98261.38
2023-05-05T08:17:52.684Z,98257.41
2023-05-05T08:20:21.184Z,98259.03
2023-05-05T08:22:48.626Z,98257.63
2023-05-05T08:25:15.795Z,98256.88
2023-05-05T08:27:43.436Z,98261.88
2023-05-05T08:30:11.070Z,98266.78
2023-05-05T08:32:41.630Z,98261.56
2023-05-05T08:35:09.320Z,98259.91
2023-05-05T08:37:36.614Z,98255.34
2023-05-05T08:40:04.013Z,98253.81
2023-05-05T08:42:37.917Z,98252.06
2023-05-05T08:45:07.864Z,98254.03
2023-05-05T08:47:39.100Z,98242.84
2023-05-05T08:50:08.120Z,98245.53
2023-05-05T08:52:45.949Z,98246.19
2023-05-05T08:55:16.032Z,98244.88
2023-05-05T08:57:57.480Z,98247.81
2023-05-05T09:00:27.368Z,98244.34
2023-05-05T09:02:59.792Z,98238.59
2023-05-05T09:05:27.464Z,98242.50
2023-05-05T09:07:54.842Z,98237.00
2023-05-05T09:10:21.986Z,98233.97
2023-05-05T09:12:51.519Z,98238.81
2023-05-05T09:15:18.855Z,98236.09
2023-05-05T09:17:45.951Z,98231.84
2023-05-05T09:20:14.786Z,98231.09
2023-05-05T09:22:46.804Z,98228.31
2023-05-05T09:25:16.563Z,98222.78
2023-05-05T09:27:46.724Z,98222.81
2023-05-05T09:30:23.401Z,98227.25
2023-05-05T09:32:55.402Z,98216.41
2023-05-05T09:35:23.736Z,98217.94
2023-05-05T09:37:50.900Z,98219.38
2023-05-05T09:40:20.162Z,98225.91
2023-05-05T09:42:47.858Z,98218.09
2023-05-05T10:17:23.966Z,98207.19
2023-05-05T10:19:54.276Z,98205.63
2023-05-05T10:22:23.516Z,98204.41
2023-05-05T10:25:20.765Z,98197.91
2023-05-05T10:27:53.257Z,98203.13
2023-05-05T10:30:26.130Z,98201.84
2023-05-05T10:33:30.120Z,98203.78
2023-05-05T10:36:02.524Z,98196.50
2023-05-05T10:38:34.089Z,98198.13
2023-05-05T10:41:04.768Z,98196.44
2023-05-05T10:43:32.156Z,98195.59
2023-05-05T10:46:00.368Z,98193.09
2023-05-05T10:48:38.225Z,98191.94
2023-05-05T10:51:38.352Z,98194.53
2023-05-05T10:54:34.279Z,98181.22
2023-05-05T10:57:05.029Z,98179.44
2023-05-05T10:59:38.193Z,98177.88
2023-05-05T11:02:24.992Z,98178.34
2023-05-05T11:05:09.532Z,98167.28
2023-05-05T11:07:37.617Z,98161.94
2023-05-05T11:10:06.908Z,98163.41
2023-05-05T11:13:03.141Z,98150.97
2023-05-05T11:15:30.640Z,98153.47
2023-05-05T11:18:05.762Z,98157.47
2023-05-05T11:20:40.172Z,98163.56
2023-05-05T11:23:07.457Z,98153.38
2023-05-05T11:25:37.780Z,98149.31
2023-05-05T11:28:15.124Z,98145.81
2023-05-05T11:30:58.103Z,98134.16
2023-05-05T11:33:37.114Z,98128.81
2023-05-05T11:36:08.010Z,98122.47
2023-05-05T11:39:02.554Z,98122.09
2023-05-05T11:41:32.607Z,98126.16
2023-05-05T11:44:13.047Z,98118.81
2023-05-05T11:46:52.296Z,98114.59
2023-05-05T11:49:28.339Z,98113.97
2023-05-05T11:52:02.864Z,98100.03
2023-05-05T11:54:31.372Z,98088.72
2023-05-05T11:57:02.078Z,98099.34
2023-05-05T11:59:29.203Z,98090.59
2023-05-05T12:01:56.382Z,98090.44
2023-05-05T12:04:23.596Z,98088.81
2023-05-05T12:06:50.816Z,98081.16
2023-05-05T12:09:20.713Z,98087.88
2023-05-05T12:11:59.808Z,98066.03
2023-05-05T12:14:27.672Z,98060.44
2023-05-05T12:16:58.297Z,98064.91
2023-05-05T12:19:30.279Z,98053.38
2023-05-05T12:21:57.503Z,98062.09
2023-05-05T12:24:24.609Z,98063.47
2023-05-05T12:26:52.093Z,98051.75
2023-05-05T12:29:29.856Z,98043.00
2023-05-05T12:31:58.140Z,98037.91
2023-05-05T12:34:25.521Z,98031.56
2023-05-05T12:36:53.278Z,98023.88
2023-05-05T12:39:20.775Z,98029.97
2023-05-05T12:41:47.932Z,98025.09
2023-05-05T12:44:14.997Z,98022.81
2023-05-05T12:46:49.294Z,98020.38
2023-05-05T12:49:17.668Z,98014.09
2023-05-05T12:51:57.707Z,98008.06
2023-05-05T12:54:25.220Z,98004.59
2023-05-05T12:56:52.308Z,98012.06
2023-05-05T12:59:22.420Z,98007.16
2023-05-05T13:01:53.848Z,98008.69
2023-05-05T13:04:25.894Z,98006.34
2023-05-05T13:07:16.909Z,98014.78
2023-05-05T13:09:44.134Z,98008.84
2023-05-05T13:12:14.012Z,98008.28
2023-05-05T13:14:41.994Z,98000.00
2023-05-05T13:17:10.372Z,97988.94
2023-05-05T13:19:42.138Z,97982.97
2023-05-05T13:22:13.007Z,97999.91
2023-05-05T13:24:50.889Z,97996.06
2023-05-05T13:27:20.224Z,97996.50
2023-05-05T13:29:47.309Z,97992.56
2023-05-05T13:32:14.392Z,97980.91
2023-05-05T13:34:42.758Z,97991.13
2023-05-05T13:37:10.068Z,97984.28
2023-05-05T13:39:37.283Z,97979.66
2023-05-05T13:42:04.529Z,97975.59
2023-05-05T13:44:31.640Z,97978.84
2023-05-05T13:46:58.781Z,97974.50
2023-05-05T13:49:26.070Z,97978.69
2023-05-05T13:51:53.139Z,97974.28
2023-05-05T13:54:20.175Z,97965.22
2023-05-05T13:56:47.348Z,97974.25
2023-05-05T13:59:14.443Z,97973.22
2023-05-05T14:01:41.557Z,97975.00
2023-05-05T14:04:08.798Z,97964.13
2023-05-05T14:06:36.358Z,97959.69
2023-05-05T14:09:06.207Z,97950.09
2023-05-05T14:11:33.784Z,97951.41
2023-05-05T14:14:00.951Z,97943.75
2023-05-05T14:16:28.197Z,97948.91
2023-05-05T14:18:55.400Z,97946.03
2023-05-05T14:21:22.531Z,97942.56
2023-05-05T14:23:49.662Z,97937.44
2023-05-05T14:26:16.897Z,97933.59
2023-05-05T14:28:44.624Z,97935.47
2023-05-05T14:31:12.134Z,97920.41
2023-05-05T14:33:39.317Z,97935.09
2023-05-05T14:36:06.741Z,97943.34
2023-05-05T14:38:33.832Z,97942.56
2023-05-05T14:41:01.144Z,97936.13
2023-05-05T14:43:28.313Z,97942.13
2023-05-05T14:45:55.536Z,97942.25
2023-05-05T14:48:22.861Z,97934.78
2023-05-05T14:50:50.118Z,97934.75
2023-05-05T14:53:19.128Z,97937.06
2023-05-05T14:55:46.303Z,97933.69
2023-05-05T14:58:13.347Z,97936.75
2023-05-05T15:00:40.418Z,97938.91
2023-05-05T15:03:07.664Z,97939.53
2023-05-05T15:05:35.266Z,97942.94
2023-05-05T15:08:02.399Z,97942.16
2023-05-05T15:10:29.490Z,97940.03
2023-05-05T15:12:56.663Z,97931.34
2023-05-05T15:15:23.774Z,97936.84
2023-05-05T15:17:50.859Z,97930.75
2023-05-05T15:20:18.035Z,97929.59
2023-05-05T15:22:45.070Z,97929.53
2023-05-05T15:25:14.883Z,97932.88
2023-05-05T15:27:42.333Z,97926.59
2023-05-05T15:30:09.956Z,97928.94
2023-05-05T15:32:37.160Z,97925.38
2023-05-05T15:35:04.689Z,97923.78
2023-05-05T15:37:31.995Z,97922.13
2023-05-05T15:39:59.069Z,97926.69
2023-05-05T15:42:26.887Z,97926.44
2023-05-05T15:44:53.899Z,97921.47
2023-05-05T15:47:20.997Z,97914.38
2023-05-05T15:49:48.104Z,97910.75
2023-05-05T15:52:15.265Z,97912.22
2023-05-05T15:54:42.607Z,97913.78
2023-05-05T15:57:10.049Z,97918.13
2023-05-05T15:59:37.197Z,97913.28
2023-05-05T16:02:04.330Z,97916.50
2023-05-05T16:04:31.434Z,97925.19
2023-05-05T16:06:59.351Z,97924.50
2023-05-05T16:09:26.409Z,97926.88
2023-05-05T16:11:55.688Z,97926.50
2023-05-05T16:14:22.901Z,97920.44
2023-05-05T16:16:50.044Z,97923.09
2023-05-05T16:19:18.227Z,97920.44
2023-05-05T16:21:45.596Z,97924.31
2023-05-05T16:24:16.524Z,97925.03
2023-05-05T16:26:44.456Z,97927.50
2023-05-05T16:29:12.374Z,97923.56
2023-05-05T16:31:39.971Z,97923.16
2023-05-05T16:34:07.244Z,97923.41
2023-05-05T16:36:34.615Z,97920.00
2023-05-05T16:39:01.775Z,97929.31
2023-05-05T16:41:28.938Z,97932.28
2023-05-05T16:43:57.000Z,97935.69
2023-05-05T16:46:24.170Z,97929.13
2023-05-05T16:48:51.444Z,97928.47
2023-05-05T16:51:18.537Z,97928.81
2023-05-05T16:53:47.574Z,97935.75
2023-05-05T16:56:16.016Z,97929.53
2023-05-05T16:58:43.132Z,97924.56
2023-05-05T17:01:10.228Z,97930.41
2023-05-05T17:03:38.311Z,97931.25
2023-05-05T17:06:06.030Z,97930.88
2023-05-05T17:08:33.057Z,97928.16
2023-05-05T17:11:00.122Z,97930.69
2023-05-05T17:13:27.257Z,97930.38
2023-05-05T17:15:54.410Z,97928.09
2023-05-05T17:18:22.834Z,97931.47
2023-05-05T17:20:50.349Z,97934.81
2023-05-05T17:23:17.499Z,97934.50
2023-05-05T17:25:44.592Z,97939.16
2023-05-05T17:28:11.762Z,97943.81
2023-05-05T17:30:38.826Z,97964.34
2023-05-05T17:33:05.908Z,97954.75
2023-05-05T17:35:33.211Z,97950.78
2023-05-05T17:38:00.440Z,97959.69
2023-05-05T17:40:27.572Z,97960.56
2023-05-05T17:42:54.661Z,97964.72
2023-05-05T17:45:21.764Z,97965.69
2023-05-05T17:47:48.926Z,97967.69
2023-05-05T17:50:16.229Z,97982.06
2023-05-05T17:52:45.203Z,97971.03
2023-05-05T17:55:12.901Z,97974.13
2023-05-05T17:57:40.125Z,97975.28
2023-05-05T18:00:09.044Z,97977.41
2023-05-05T18:02:42.078Z,97983.50
2023-05-05T18:05:09.803Z,97987.88
2023-05-05T18:07:38.757Z,97986.06
2023-05-05T18:10:10.751Z,97992.63
2023-05-05T18:12:38.142Z,97994.63
2023-05-05T18:15:05.907Z,97998.28
2023-05-05T18:17:33.040Z,97994.31
2023-05-05T18:20:00.217Z,98000.44
2023-05-05T18:22:27.388Z,97998.28
2023-05-05T18:24:59.130Z,97996.81
2023-05-05T18:27:28.012Z,97999.13
2023-05-05T18:29:55.342Z,97996.50
2023-05-05T18:32:22.824Z,98004.06
2023-05-05T18:34:50.214Z,98006.47
2023-05-05T18:37:17.336Z,98002.19
2023-05-05T18:39:45.316Z,97991.44
2023-05-05T18:42:13.160Z,97994.88
2023-05-05T18:44:40.426Z,97998.78
2023-05-05T18:47:08.078Z,97997.44
2023-05-05T18:49:35.873Z,97997.28
2023-05-05T18:52:03.226Z,98002.38
2023-05-05T18:54:30.412Z,98008.94
2023-05-05T18:56:57.793Z,98005.91
2023-05-05T18:59:24.877Z,97997.16
2023-05-05T19:01:52.031Z,98002.31
2023-05-05T19:04:30.106Z,98005.94
2023-05-05T19:06:58.152Z,98005.19
2023-05-05T19:09:25.328Z,98009.13
2023-05-05T19:11:52.535Z,98004.16
2023-05-05T19:14:19.619Z,97996.97
2023-05-05T19:16:47.071Z,98001.09
2023-05-05T19:19:14.483Z,98003.91
2023-05-05T19:21:41.582Z,97999.00
2023-05-05T19:24:09.741Z,98003.97
2023-05-05T19:26:37.081Z,98003.38
2023-05-05T19:29:04.457Z,98004.03
2023-05-05T19:31:32.033Z,98007.72
2023-05-05T19:34:03.923Z,98010.00
2023-05-05T19:36:31.892Z,97999.75
2023-05-05T19:39:02.946Z,97999.97
2023-05-05T19:41:30.941Z,98000.38
2023-05-05T19:43:58.037Z,97993.47
2023-05-05T19:46:26.710Z,97992.28
2023-05-05T19:48:53.972Z,97990.56
2023-05-05T19:51:21.252Z,98001.63
2023-05-05T19:53:48.591Z,97992.91
2023-05-05T19:56:17.099Z,97998.44
2023-05-05T19:58:59.159Z,97992.75
2023-05-05T20:01:26.953Z,97992.91
2023-05-05T20:03:56.040Z,97998.44
2023-05-05T20:06:23.362Z,97997.78
2023-05-05T20:08:50.857Z,97997.78
2023-05-05T20:11:18.356Z,97990.00
2023-05-05T20:13:45.578Z,97997.06
2023-05-05T20:16:14.948Z,98002.59
2023-05-05T20:18:42.155Z,97993.91
2023-05-05T20:21:09.402Z,97991.25
2023-05-05T20:23:37.186Z,97990.34
2023-05-05T20:26:04.470Z,97990.56
2023-05-05T20:28:32.158Z,97986.06
2023-05-05T20:31:00.906Z,97980.75
2023-05-05T20:33:29.130Z,97981.19
2023-05-05T20:35:56.326Z,97980.28
2023-05-05T20:38:23.457Z,97971.66
2023-05-05T20:40:52.312Z,97970.81
2023-05-05T20:43:19.719Z,97975.72
2023-05-05T20:45:46.772Z,97970.59
2023-05-05T20:48:13.860Z,97965.56
2023-05-05T20:50:41.833Z,97970.88
2023-05-05T20:53:09.863Z,97971.41
2023-05-05T20:55:37.218Z,97973.91
2023-05-05T20:58:05.525Z,97975.91
2023-05-05T21:00:32.700Z,97979.28
2023-05-05T21:02:59.963Z,97973.28
2023-05-05T21:05:27.161Z,97970.97
2023-05-05T21:07:54.731Z,97976.97
2023-05-05T21:10:21.933Z,97976.44
2023-05-05T21:12:49.062Z,97975.22
2023-05-05T21:15:16.928Z,97973.69
2023-05-05T21:17:44.253Z,97973.09
2023-05-05T21:20:12.233Z,97968.34
2023-05-05T21:22:39.583Z,97967.66
2023-05-05T21:25:10.416Z,97957.91
2023-05-05T21:27:37.566Z,97963.28
2023-05-05T21:30:05.068Z,97956.50
2023-05-05T21:32:32.180Z,97952.16
2023-05-05T21:34:59.302Z,97948.56
2023-05-05T21:37:26.529Z,97946.84
2023-05-05T21:39:54.132Z,97950.56
2023-05-05T21:42:21.257Z,97946.09
2023-05-05T21:44:48.285Z,97943.91
2023-05-05T21:47:16.444Z,97935.47
2023-05-05T21:49:43.611Z,97940.34
2023-05-05T21:52:10.891Z,97927.50
2023-05-05T21:54:38.010Z,97924.28
2023-05-05T21:57:05.088Z,97921.91
2023-05-05T21:59:32.220Z,97924.56
2023-05-05T22:01:59.433Z,97920.31
2023-05-05T22:04:26.560Z,97924.59
2023-05-05T22:06:53.715Z,97922.25
2023-05-05T22:09:21.163Z,97914.63
2023-05-05T22:11:48.260Z,97913.06
2023-05-05T22:14:16.045Z,97911.09
2023-05-05T22:16:43.539Z,97908.03
2023-05-05T22:19:10.774Z,97911.41
2023-05-05T22:21:37.900Z,97904.91
2023-05-05T22:24:07.279Z,97898.88
2023-05-05T22:26:34.384Z,97890.47
2023-05-05T22:29:01.716Z,97890.34
2023-05-05T22:31:29.549Z,97889.81
2023-05-05T22:33:56.711Z,97885.63
2023-05-05T22:36:23.789Z,97880.19
2023-05-05T22:38:50.867Z,97872.97
2023-05-05T22:41:17.960Z,97879.03
2023-05-05T22:43:45.053Z,97870.25
2023-05-05T22:46:12.339Z,97864.59
2023-05-05T22:48:39.505Z,97867.31
2023-05-05T22:51:06.596Z,97867.31
2023-05-05T22:53:33.730Z,97868.00
2023-05-05T22:56:01.149Z,97860.31
2023-05-05T22:58:28.576Z,97857.16
2023-05-05T23:00:55.621Z,97854.78
2023-05-05T23:03:22.784Z,97849.66
2023-05-05T23:05:49.884Z,97847.72
2023-05-05T23:08:16.923Z,97842.44
2023-05-05T23:10:43.942Z,97833.75
2023-05-05T23:13:11.176Z,97834.06
2023-05-05T23:15:38.321Z,97832.53
2023-05-05T23:18:05.453Z,97833.09
2023-05-05T23:20:32.647Z,97838.84
2023-05-05T23:22:59.792Z,97829.09
2023-05-05T23:25:26.834Z,97821.94
2023-05-05T23:27:53.968Z,97821.13
2023-05-05T23:30:21.147Z,97820.16
2023-05-05T23:32:48.279Z,97818.63
2023-05-05T23:35:15.530Z,97816.72
2023-05-05T23:37:42.586Z,97820.88
2023-05-05T23:40:10.203Z,97818.63
2023-05-05T23:42:37.290Z,97822.25
2023-05-05T23:45:04.608Z,97828.28
2023-05-05T23:47:32.345Z,97825.41
2023-05-05T23:49:59.491Z,97821.94
2023-05-05T23:52:26.904Z,97811.59
2023-05-05T23:54:53.971Z,97816.41
2023-05-05T23:57:21.003Z,97820.38
2023-05-05T23:59:48.142Z,97811.47
